sensor_id;sensor_type;location;lat;lon;timestamp;P1;durP1;ratioP1;P2;durP2;ratioP2
665;SDS011;315;48.738;9.126;2023-04-24T00:00:35;1.27;;;1.17;;
665;SDS011;315;48.738;9.126;2023-04-24T00:03:01;3.30;;;1.70;;
665;SDS011;315;48.738;9.126;2023-04-24T00:05:27;2.90;;;1.17;;
665;SDS011;315;48.738;9.126;2023-04-24T00:07:53;2.90;;;1.60;;
665;SDS011;315;48.738;9.126;2023-04-24T00:10:20;1.53;;;1.30;;
665;SDS011;315;48.738;9.126;2023-04-24T00:12:45;1.60;;;1.10;;
665;SDS011;315;48.738;9.126;2023-04-24T00:15:11;1.57;;;1.40;;
665;SDS011;315;48.738;9.126;2023-04-24T00:17:37;1.77;;;1.30;;
665;SDS011;315;48.738;9.126;2023-04-24T00:20:03;2.00;;;0.97;;
665;SDS011;315;48.738;9.126;2023-04-24T00:22:29;1.73;;;1.63;;
665;SDS011;315;48.738;9.126;2023-04-24T00:24:55;1.50;;;1.37;;
665;SDS011;315;48.738;9.126;2023-04-24T00:27:21;1.10;;;1.00;;
665;SDS011;315;48.738;9.126;2023-04-24T00:29:47;1.70;;;1.43;;
665;SDS011;315;48.738;9.126;2023-04-24T00:32:13;1.27;;;1.10;;
665;SDS011;315;48.738;9.126;2023-04-24T00:34:39;1.40;;;1.13;;
665;SDS011;315;48.738;9.126;2023-04-24T00:37:05;3.70;;;1.00;;
665;SDS011;315;48.738;9.126;2023-04-24T00:39:30;1.30;;;1.20;;
665;SDS011;315;48.738;9.126;2023-04-24T00:41:56;1.53;;;1.10;;
665;SDS011;315;48.738;9.126;2023-04-24T00:44:22;1.07;;;0.87;;
665;SDS011;315;48.738;9.126;2023-04-24T00:46:48;1.33;;;1.20;;
665;SDS011;315;48.738;9.126;2023-04-24T00:49:19;1.20;;;1.10;;
665;SDS011;315;48.738;9.126;2023-04-24T00:51:46;2.00;;;1.00;;
665;SDS011;315;48.738;9.126;2023-04-24T00:54:15;3.20;;;1.43;;
665;SDS011;315;48.738;9.126;2023-04-24T00:56:41;1.20;;;1.10;;
665;SDS011;315;48.738;9.126;2023-04-24T00:59:07;1.10;;;1.00;;
665;SDS011;315;48.738;9.126;2023-04-24T01:01:33;1.13;;;1.03;;
665;SDS011;315;48.738;9.126;2023-04-24T01:03:59;1.80;;;1.57;;
665;SDS011;315;48.738;9.126;2023-04-24T01:06:27;0.90;;;0.90;;
665;SDS011;315;48.738;9.126;2023-04-24T01:08:56;0.90;;;0.90;;
665;SDS011;315;48.738;9.126;2023-04-24T01:11:24;1.20;;;1.10;;
665;SDS011;315;48.738;9.126;2023-04-24T01:13:50;1.27;;;1.17;;
665;SDS011;315;48.738;9.126;2023-04-24T01:16:15;6.10;;;1.40;;
665;SDS011;315;48.738;9.126;2023-04-24T01:18:42;2.27;;;1.40;;
665;SDS011;315;48.738;9.126;2023-04-24T01:21:08;1.10;;;1.00;;
665;SDS011;315;48.738;9.126;2023-04-24T01:23:36;2.33;;;1.23;;
665;SDS011;315;48.738;9.126;2023-04-24T01:26:01;2.53;;;0.90;;
665;SDS011;315;48.738;9.126;2023-04-24T01:28:27;2.30;;;1.97;;
665;SDS011;315;48.738;9.126;2023-04-24T01:30:53;1.23;;;1.00;;
665;SDS011;315;48.738;9.126;2023-04-24T01:33:20;1.40;;;1.30;;
665;SDS011;315;48.738;9.126;2023-04-24T01:35:46;1.47;;;1.37;;
665;SDS011;315;48.738;9.126;2023-04-24T01:38:13;0.97;;;0.97;;
665;SDS011;315;48.738;9.126;2023-04-24T01:40:38;1.30;;;1.20;;
665;SDS011;315;48.738;9.126;2023-04-24T01:43:04;1.47;;;1.20;;
665;SDS011;315;48.738;9.126;2023-04-24T01:45:30;1.50;;;1.20;;
665;SDS011;315;48.738;9.126;2023-04-24T01:47:55;2.40;;;1.50;;
665;SDS011;315;48.738;9.126;2023-04-24T01:50:21;1.40;;;1.20;;
665;SDS011;315;48.738;9.126;2023-04-24T01:52:47;1.63;;;1.53;;
665;SDS011;315;48.738;9.126;2023-04-24T01:55:12;1.77;;;1.60;;
665;SDS011;315;48.738;9.126;2023-04-24T01:57:38;2.20;;;1.90;;
665;SDS011;315;48.738;9.126;2023-04-24T02:00:04;1.67;;;1.17;;
665;SDS011;315;48.738;9.126;2023-04-24T02:02:31;2.93;;;1.13;;
665;SDS011;315;48.738;9.126;2023-04-24T02:04:57;1.57;;;1.33;;
665;SDS011;315;48.738;9.126;2023-04-24T02:07:22;1.63;;;1.50;;
665;SDS011;315;48.738;9.126;2023-04-24T02:09:48;1.77;;;1.50;;
665;SDS011;315;48.738;9.126;2023-04-24T02:12:17;1.30;;;1.20;;
665;SDS011;315;48.738;9.126;2023-04-24T02:14:42;1.10;;;1.00;;
665;SDS011;315;48.738;9.126;2023-04-24T02:17:08;1.33;;;1.23;;
665;SDS011;315;48.738;9.126;2023-04-24T02:19:34;1.57;;;1.47;;
665;SDS011;315;48.738;9.126;2023-04-24T02:21:59;1.33;;;1.10;;
665;SDS011;315;48.738;9.126;2023-04-24T02:24:25;1.90;;;1.27;;
665;SDS011;315;48.738;9.126;2023-04-24T02:26:50;1.43;;;1.33;;
665;SDS011;315;48.738;9.126;2023-04-24T02:29:16;2.93;;;1.67;;
665;SDS011;315;48.738;9.126;2023-04-24T02:31:41;1.53;;;1.40;;
665;SDS011;315;48.738;9.126;2023-04-24T02:34:07;1.40;;;1.30;;
665;SDS011;315;48.738;9.126;2023-04-24T02:36:32;2.20;;;1.53;;
665;SDS011;315;48.738;9.126;2023-04-24T02:38:58;2.50;;;1.27;;
665;SDS011;315;48.738;9.126;2023-04-24T02:41:23;2.50;;;1.23;;
665;SDS011;315;48.738;9.126;2023-04-24T02:43:49;2.07;;;1.50;;
665;SDS011;315;48.738;9.126;2023-04-24T02:46:15;2.30;;;1.27;;
665;SDS011;315;48.738;9.126;2023-04-24T02:48:40;1.70;;;1.40;;
665;SDS011;315;48.738;9.126;2023-04-24T02:51:06;2.40;;;1.10;;
665;SDS011;315;48.738;9.126;2023-04-24T02:53:31;3.40;;;1.47;;
665;SDS011;315;48.738;9.126;2023-04-24T02:55:57;1.50;;;1.40;;
665;SDS011;315;48.738;9.126;2023-04-24T02:58:22;3.10;;;1.97;;
665;SDS011;315;48.738;9.126;2023-04-24T03:00:48;1.37;;;1.27;;
665;SDS011;315;48.738;9.126;2023-04-24T03:03:14;2.70;;;1.50;;
665;SDS011;315;48.738;9.126;2023-04-24T03:05:40;1.63;;;1.53;;
665;SDS011;315;48.738;9.126;2023-04-24T03:08:05;2.30;;;1.50;;
665;SDS011;315;48.738;9.126;2023-04-24T03:10:31;3.07;;;1.50;;
665;SDS011;315;48.738;9.126;2023-04-24T03:12:57;2.13;;;1.63;;
665;SDS011;315;48.738;9.126;2023-04-24T03:15:22;1.57;;;1.47;;
665;SDS011;315;48.738;9.126;2023-04-24T03:17:48;2.50;;;1.27;;
665;SDS011;315;48.738;9.126;2023-04-24T03:20:13;1.63;;;1.13;;
665;SDS011;315;48.738;9.126;2023-04-24T03:22:39;2.43;;;1.50;;
665;SDS011;315;48.738;9.126;2023-04-24T03:25:05;1.40;;;1.20;;
665;SDS011;315;48.738;9.126;2023-04-24T03:27:31;2.37;;;2.00;;
665;SDS011;315;48.738;9.126;2023-04-24T03:29:56;1.83;;;1.37;;
665;SDS011;315;48.738;9.126;2023-04-24T03:32:22;3.83;;;1.60;;
665;SDS011;315;48.738;9.126;2023-04-24T03:34:48;1.63;;;1.53;;
665;SDS011;315;48.738;9.126;2023-04-24T03:37:14;1.67;;;1.57;;
665;SDS011;315;48.738;9.126;2023-04-24T03:39:40;1.70;;;1.60;;
665;SDS011;315;48.738;9.126;2023-04-24T03:42:05;3.60;;;1.40;;
665;SDS011;315;48.738;9.126;2023-04-24T03:44:31;1.47;;;1.20;;
665;SDS011;315;48.738;9.126;2023-04-24T03:46:57;2.50;;;1.63;;
665;SDS011;315;48.738;9.126;2023-04-24T03:49:23;2.77;;;1.70;;
665;SDS011;315;48.738;9.126;2023-04-24T03:51:48;1.80;;;1.70;;
665;SDS011;315;48.738;9.126;2023-04-24T03:54:14;1.47;;;1.37;;
665;SDS011;315;48.738;9.126;2023-04-24T03:56:39;3.00;;;1.60;;
665;SDS011;315;48.738;9.126;2023-04-24T03:59:05;1.30;;;1.10;;
665;SDS011;315;48.738;9.126;2023-04-24T04:01:30;2.53;;;1.33;;
665;SDS011;315;48.738;9.126;2023-04-24T04:03:56;1.50;;;1.40;;
665;SDS011;315;48.738;9.126;2023-04-24T04:06:21;3.10;;;1.40;;
665;SDS011;315;48.738;9.126;2023-04-24T04:08:47;2.23;;;1.10;;
665;SDS011;315;48.738;9.126;2023-04-24T04:11:13;1.60;;;1.50;;
665;SDS011;315;48.738;9.126;2023-04-24T04:13:38;2.73;;;1.43;;
665;SDS011;315;48.738;9.126;2023-04-24T04:16:04;1.40;;;1.30;;
665;SDS011;315;48.738;9.126;2023-04-24T04:18:30;1.40;;;1.30;;
665;SDS011;315;48.738;9.126;2023-04-24T04:20:55;2.97;;;1.80;;
665;SDS011;315;48.738;9.126;2023-04-24T04:23:22;1.50;;;1.40;;
665;SDS011;315;48.738;9.126;2023-04-24T04:25:47;1.70;;;1.30;;
665;SDS011;315;48.738;9.126;2023-04-24T04:28:13;4.50;;;1.13;;
665;SDS011;315;48.738;9.126;2023-04-24T04:30:38;2.30;;;1.10;;
665;SDS011;315;48.738;9.126;2023-04-24T04:33:05;3.60;;;2.03;;
665;SDS011;315;48.738;9.126;2023-04-24T04:35:30;2.00;;;1.80;;
665;SDS011;315;48.738;9.126;2023-04-24T04:37:56;4.30;;;2.17;;
665;SDS011;315;48.738;9.126;2023-04-24T04:40:23;2.43;;;2.20;;
665;SDS011;315;48.738;9.126;2023-04-24T04:42:49;2.20;;;2.10;;
665;SDS011;315;48.738;9.126;2023-04-24T04:45:17;3.03;;;1.90;;
665;SDS011;315;48.738;9.126;2023-04-24T04:47:43;3.60;;;3.30;;
665;SDS011;315;48.738;9.126;2023-04-24T04:50:09;2.17;;;1.97;;
665;SDS011;315;48.738;9.126;2023-04-24T04:52:35;2.23;;;2.13;;
665;SDS011;315;48.738;9.126;2023-04-24T04:55:01;2.20;;;2.00;;
665;SDS011;315;48.738;9.126;2023-04-24T04:57:27;4.20;;;2.37;;
665;SDS011;315;48.738;9.126;2023-04-24T04:59:52;3.03;;;2.50;;
665;SDS011;315;48.738;9.126;2023-04-24T05:02:18;3.27;;;2.97;;
665;SDS011;315;48.738;9.126;2023-04-24T05:04:43;3.00;;;2.80;;
665;SDS011;315;48.738;9.126;2023-04-24T05:07:10;2.73;;;2.53;;
665;SDS011;315;48.738;9.126;2023-04-24T05:09:35;6.27;;;3.20;;
665;SDS011;315;48.738;9.126;2023-04-24T05:12:02;3.20;;;2.33;;
665;SDS011;315;48.738;9.126;2023-04-24T05:14:28;3.30;;;3.10;;
665;SDS011;315;48.738;9.126;2023-04-24T05:16:53;3.07;;;2.70;;
665;SDS011;315;48.738;9.126;2023-04-24T05:19:19;2.50;;;2.30;;
665;SDS011;315;48.738;9.126;2023-04-24T05:21:44;2.80;;;2.60;;
665;SDS011;315;48.738;9.126;2023-04-24T05:24:10;2.60;;;2.40;;
665;SDS011;315;48.738;9.126;2023-04-24T05:26:35;2.73;;;2.53;;
665;SDS011;315;48.738;9.126;2023-04-24T05:29:01;2.87;;;2.67;;
665;SDS011;315;48.738;9.126;2023-04-24T05:31:27;4.57;;;3.03;;
665;SDS011;315;48.738;9.126;2023-04-24T05:33:53;4.53;;;2.30;;
665;SDS011;315;48.738;9.126;2023-04-24T05:36:18;2.90;;;2.60;;
665;SDS011;315;48.738;9.126;2023-04-24T05:38:44;2.93;;;2.70;;
665;SDS011;315;48.738;9.126;2023-04-24T05:41:10;8.73;;;3.50;;
665;SDS011;315;48.738;9.126;2023-04-24T05:43:35;2.83;;;2.63;;
665;SDS011;315;48.738;9.126;2023-04-24T05:46:00;3.50;;;3.20;;
665;SDS011;315;48.738;9.126;2023-04-24T05:48:26;2.80;;;2.60;;
665;SDS011;315;48.738;9.126;2023-04-24T05:50:52;3.10;;;2.90;;
665;SDS011;315;48.738;9.126;2023-04-24T05:53:17;4.17;;;3.80;;
665;SDS011;315;48.738;9.126;2023-04-24T05:55:43;3.50;;;3.30;;
665;SDS011;315;48.738;9.126;2023-04-24T05:58:09;5.43;;;3.67;;
665;SDS011;315;48.738;9.126;2023-04-24T06:00:35;5.00;;;3.97;;
665;SDS011;315;48.738;9.126;2023-04-24T06:03:01;3.73;;;3.00;;
665;SDS011;315;48.738;9.126;2023-04-24T06:05:28;2.70;;;2.50;;
665;SDS011;315;48.738;9.126;2023-04-24T06:07:54;3.93;;;3.07;;
665;SDS011;315;48.738;9.126;2023-04-24T06:10:20;3.90;;;3.27;;
665;SDS011;315;48.738;9.126;2023-04-24T06:12:46;11.90;;;4.30;;
665;SDS011;315;48.738;9.126;2023-04-24T06:15:11;3.63;;;2.80;;
665;SDS011;315;48.738;9.126;2023-04-24T06:17:37;5.07;;;3.50;;
665;SDS011;315;48.738;9.126;2023-04-24T06:20:03;3.93;;;3.53;;
665;SDS011;315;48.738;9.126;2023-04-24T06:22:30;5.07;;;3.00;;
665;SDS011;315;48.738;9.126;2023-04-24T06:24:56;3.37;;;3.07;;
665;SDS011;315;48.738;9.126;2023-04-24T06:27:21;3.20;;;2.90;;
665;SDS011;315;48.738;9.126;2023-04-24T06:29:47;3.90;;;2.80;;
665;SDS011;315;48.738;9.126;2023-04-24T06:32:19;3.07;;;2.77;;
665;SDS011;315;48.738;9.126;2023-04-24T06:34:45;3.13;;;2.73;;
665;SDS011;315;48.738;9.126;2023-04-24T06:37:11;3.10;;;2.63;;
665;SDS011;315;48.738;9.126;2023-04-24T06:39:36;3.60;;;3.30;;
665;SDS011;315;48.738;9.126;2023-04-24T06:42:02;3.23;;;3.03;;
665;SDS011;315;48.738;9.126;2023-04-24T06:44:27;4.90;;;4.10;;
665;SDS011;315;48.738;9.126;2023-04-24T06:46:53;3.40;;;3.10;;
665;SDS011;315;48.738;9.126;2023-04-24T06:49:18;3.50;;;2.67;;
665;SDS011;315;48.738;9.126;2023-04-24T06:51:45;4.87;;;2.47;;
665;SDS011;315;48.738;9.126;2023-04-24T06:54:10;3.30;;;3.00;;
665;SDS011;315;48.738;9.126;2023-04-24T06:56:36;3.17;;;2.87;;
665;SDS011;315;48.738;9.126;2023-04-24T06:59:01;3.27;;;2.97;;
665;SDS011;315;48.738;9.126;2023-04-24T07:01:27;5.53;;;3.57;;
665;SDS011;315;48.738;9.126;2023-04-24T07:03:52;3.50;;;2.87;;
665;SDS011;315;48.738;9.126;2023-04-24T07:06:18;3.20;;;3.00;;
665;SDS011;315;48.738;9.126;2023-04-24T07:08:46;2.53;;;2.17;;
665;SDS011;315;48.738;9.126;2023-04-24T07:11:12;3.93;;;2.67;;
665;SDS011;315;48.738;9.126;2023-04-24T07:13:37;3.10;;;2.00;;
665;SDS011;315;48.738;9.126;2023-04-24T07:16:06;5.30;;;3.10;;
665;SDS011;315;48.738;9.126;2023-04-24T07:18:33;5.53;;;2.53;;
665;SDS011;315;48.738;9.126;2023-04-24T07:20:58;6.13;;;3.00;;
665;SDS011;315;48.738;9.126;2023-04-24T07:23:24;2.50;;;2.00;;
665;SDS011;315;48.738;9.126;2023-04-24T07:25:49;3.17;;;2.47;;
665;SDS011;315;48.738;9.126;2023-04-24T07:28:15;3.37;;;2.43;;
665;SDS011;315;48.738;9.126;2023-04-24T07:30:42;3.77;;;3.30;;
665;SDS011;315;48.738;9.126;2023-04-24T07:33:08;2.57;;;2.37;;
665;SDS011;315;48.738;9.126;2023-04-24T07:35:36;3.17;;;2.50;;
665;SDS011;315;48.738;9.126;2023-04-24T07:38:01;2.27;;;1.73;;
665;SDS011;315;48.738;9.126;2023-04-24T07:40:27;2.97;;;1.90;;
665;SDS011;315;48.738;9.126;2023-04-24T07:42:52;2.03;;;1.80;;
665;SDS011;315;48.738;9.126;2023-04-24T07:45:18;1.70;;;1.60;;
665;SDS011;315;48.738;9.126;2023-04-24T07:47:43;2.83;;;2.00;;
665;SDS011;315;48.738;9.126;2023-04-24T07:50:10;2.60;;;2.40;;
665;SDS011;315;48.738;9.126;2023-04-24T07:52:36;2.30;;;2.10;;
665;SDS011;315;48.738;9.126;2023-04-24T07:55:02;3.63;;;2.10;;
665;SDS011;315;48.738;9.126;2023-04-24T07:57:28;3.13;;;2.10;;
665;SDS011;315;48.738;9.126;2023-04-24T07:59:54;4.27;;;2.77;;
665;SDS011;315;48.738;9.126;2023-04-24T08:02:20;2.07;;;1.80;;
665;SDS011;315;48.738;9.126;2023-04-24T08:04:51;4.60;;;2.00;;
665;SDS011;315;48.738;9.126;2023-04-24T08:07:17;2.00;;;1.87;;
665;SDS011;315;48.738;9.126;2023-04-24T08:09:43;2.10;;;1.90;;
665;SDS011;315;48.738;9.126;2023-04-24T08:12:08;2.13;;;1.80;;
665;SDS011;315;48.738;9.126;2023-04-24T08:14:34;2.30;;;2.10;;
665;SDS011;315;48.738;9.126;2023-04-24T08:17:00;1.63;;;1.53;;
665;SDS011;315;48.738;9.126;2023-04-24T08:19:26;3.60;;;3.27;;
665;SDS011;315;48.738;9.126;2023-04-24T08:21:51;2.57;;;1.90;;
665;SDS011;315;48.738;9.126;2023-04-24T08:24:17;1.60;;;1.50;;
665;SDS011;315;48.738;9.126;2023-04-24T08:26:42;6.83;;;2.20;;
665;SDS011;315;48.738;9.126;2023-04-24T08:29:08;1.77;;;1.67;;
665;SDS011;315;48.738;9.126;2023-04-24T08:31:34;2.40;;;2.20;;
665;SDS011;315;48.738;9.126;2023-04-24T08:34:00;3.33;;;1.83;;
665;SDS011;315;48.738;9.126;2023-04-24T08:36:25;2.00;;;1.90;;
665;SDS011;315;48.738;9.126;2023-04-24T08:38:52;3.07;;;1.73;;
665;SDS011;315;48.738;9.126;2023-04-24T08:41:18;2.07;;;1.97;;
665;SDS011;315;48.738;9.126;2023-04-24T08:43:45;2.30;;;2.10;;
665;SDS011;315;48.738;9.126;2023-04-24T08:46:11;3.03;;;1.60;;
665;SDS011;315;48.738;9.126;2023-04-24T08:48:38;1.80;;;1.70;;
665;SDS011;315;48.738;9.126;2023-04-24T08:51:06;3.13;;;2.30;;
665;SDS011;315;48.738;9.126;2023-04-24T08:53:32;2.10;;;1.90;;
665;SDS011;315;48.738;9.126;2023-04-24T08:55:59;2.67;;;2.43;;
665;SDS011;315;48.738;9.126;2023-04-24T08:58:26;2.50;;;2.30;;
665;SDS011;315;48.738;9.126;2023-04-24T09:00:55;2.37;;;2.17;;
665;SDS011;315;48.738;9.126;2023-04-24T09:03:21;2.10;;;1.97;;
665;SDS011;315;48.738;9.126;2023-04-24T09:05:48;2.90;;;2.70;;
665;SDS011;315;48.738;9.126;2023-04-24T09:08:15;2.67;;;2.40;;
665;SDS011;315;48.738;9.126;2023-04-24T09:10:42;4.13;;;2.50;;
665;SDS011;315;48.738;9.126;2023-04-24T09:13:08;2.97;;;2.57;;
665;SDS011;315;48.738;9.126;2023-04-24T09:15:35;2.73;;;2.53;;
665;SDS011;315;48.738;9.126;2023-04-24T09:18:04;2.70;;;2.37;;
665;SDS011;315;48.738;9.126;2023-04-24T09:20:30;3.03;;;2.70;;
665;SDS011;315;48.738;9.126;2023-04-24T09:22:56;2.03;;;1.80;;
665;SDS011;315;48.738;9.126;2023-04-24T09:25:23;2.93;;;2.00;;
665;SDS011;315;48.738;9.126;2023-04-24T09:27:58;4.60;;;2.37;;
665;SDS011;315;48.738;9.126;2023-04-24T09:30:29;3.00;;;2.37;;
665;SDS011;315;48.738;9.126;2023-04-24T09:33:15;4.37;;;1.90;;
665;SDS011;315;48.738;9.126;2023-04-24T09:35:41;2.40;;;2.10;;
665;SDS011;315;48.738;9.126;2023-04-24T09:38:10;3.53;;;1.57;;
665;SDS011;315;48.738;9.126;2023-04-24T09:40:36;2.80;;;1.83;;
665;SDS011;315;48.738;9.126;2023-04-24T09:43:01;2.87;;;1.80;;
665;SDS011;315;48.738;9.126;2023-04-24T09:45:28;2.03;;;1.57;;
665;SDS011;315;48.738;9.126;2023-04-24T09:47:59;4.97;;;1.80;;
665;SDS011;315;48.738;9.126;2023-04-24T09:50:25;1.93;;;1.70;;
665;SDS011;315;48.738;9.126;2023-04-24T09:53:01;1.90;;;1.80;;
665;SDS011;315;48.738;9.126;2023-04-24T09:55:28;2.60;;;1.57;;
665;SDS011;315;48.738;9.126;2023-04-24T09:57:58;4.33;;;2.17;;
665;SDS011;315;48.738;9.126;2023-04-24T10:00:28;2.00;;;1.80;;
665;SDS011;315;48.738;9.126;2023-04-24T10:03:02;2.17;;;1.60;;
665;SDS011;315;48.738;9.126;2023-04-24T10:05:30;1.40;;;1.30;;
665;SDS011;315;48.738;9.126;2023-04-24T10:08:01;1.77;;;1.60;;
665;SDS011;315;48.738;9.126;2023-04-24T10:10:29;1.70;;;1.40;;
665;SDS011;315;48.738;9.126;2023-04-24T10:12:55;1.70;;;1.60;;
665;SDS011;315;48.738;9.126;2023-04-24T10:15:21;1.93;;;1.43;;
665;SDS011;315;48.738;9.126;2023-04-24T10:17:48;1.60;;;1.50;;
665;SDS011;315;48.738;9.126;2023-04-24T10:20:27;1.60;;;1.50;;
665;SDS011;315;48.738;9.126;2023-04-24T10:22:55;2.50;;;1.60;;
665;SDS011;315;48.738;9.126;2023-04-24T10:25:22;1.50;;;1.40;;
665;SDS011;315;48.738;9.126;2023-04-24T10:27:50;1.93;;;1.83;;
665;SDS011;315;48.738;9.126;2023-04-24T10:30:17;1.97;;;1.87;;
665;SDS011;315;48.738;9.126;2023-04-24T10:32:43;2.30;;;1.50;;
665;SDS011;315;48.738;9.126;2023-04-24T10:35:10;2.60;;;1.80;;
665;SDS011;315;48.738;9.126;2023-04-24T10:37:45;1.90;;;1.80;;
665;SDS011;315;48.738;9.126;2023-04-24T10:40:26;1.60;;;1.50;;
665;SDS011;315;48.738;9.126;2023-04-24T10:42:54;2.00;;;1.80;;
665;SDS011;315;48.738;9.126;2023-04-24T10:45:21;1.80;;;1.70;;
665;SDS011;315;48.738;9.126;2023-04-24T10:48:09;2.13;;;1.70;;
665;SDS011;315;48.738;9.126;2023-04-24T10:50:45;1.90;;;1.80;;
665;SDS011;315;48.738;9.126;2023-04-24T10:53:13;2.87;;;1.60;;
665;SDS011;315;48.738;9.126;2023-04-24T10:55:52;1.50;;;1.40;;
665;SDS011;315;48.738;9.126;2023-04-24T10:58:23;2.23;;;2.03;;
665;SDS011;315;48.738;9.126;2023-04-24T11:00:56;1.67;;;1.57;;
665;SDS011;315;48.738;9.126;2023-04-24T11:03:24;2.60;;;1.50;;
665;SDS011;315;48.738;9.126;2023-04-24T11:06:04;2.10;;;1.50;;
665;SDS011;315;48.738;9.126;2023-04-24T11:08:38;1.60;;;1.50;;
665;SDS011;315;48.738;9.126;2023-04-24T11:11:08;1.97;;;1.50;;
665;SDS011;315;48.738;9.126;2023-04-24T11:19:02;1.70;;;1.60;;
665;SDS011;315;48.738;9.126;2023-04-24T11:24:40;2.63;;;1.90;;
665;SDS011;315;48.738;9.126;2023-04-24T11:27:18;2.10;;;1.40;;
665;SDS011;315;48.738;9.126;2023-04-24T11:35:14;1.73;;;1.63;;
665;SDS011;315;48.738;9.126;2023-04-24T11:37:41;2.20;;;1.70;;
665;SDS011;315;48.738;9.126;2023-04-24T11:40:09;1.70;;;1.60;;
665;SDS011;315;48.738;9.126;2023-04-24T11:42:39;4.20;;;1.33;;
665;SDS011;315;48.738;9.126;2023-04-24T11:45:08;2.07;;;1.97;;
665;SDS011;315;48.738;9.126;2023-04-24T11:47:35;3.30;;;2.70;;
665;SDS011;315;48.738;9.126;2023-04-24T11:50:01;1.87;;;1.63;;
665;SDS011;315;48.738;9.126;2023-04-24T11:52:29;2.40;;;2.20;;
665;SDS011;315;48.738;9.126;2023-04-24T11:54:55;2.03;;;1.93;;
665;SDS011;315;48.738;9.126;2023-04-24T11:57:24;2.30;;;2.10;;
665;SDS011;315;48.738;9.126;2023-04-24T11:59:53;2.33;;;2.17;;
665;SDS011;315;48.738;9.126;2023-04-24T12:02:19;2.63;;;2.43;;
665;SDS011;315;48.738;9.126;2023-04-24T12:04:49;2.27;;;2.00;;
665;SDS011;315;48.738;9.126;2023-04-24T12:07:14;3.13;;;2.93;;
665;SDS011;315;48.738;9.126;2023-04-24T12:09:43;2.97;;;2.30;;
665;SDS011;315;48.738;9.126;2023-04-24T12:12:10;2.43;;;2.20;;
665;SDS011;315;48.738;9.126;2023-04-24T12:17:12;2.00;;;1.90;;
665;SDS011;315;48.738;9.126;2023-04-24T12:19:44;1.87;;;1.77;;
665;SDS011;315;48.738;9.126;2023-04-24T12:22:13;2.10;;;1.97;;
665;SDS011;315;48.738;9.126;2023-04-24T12:24:58;2.30;;;2.10;;
665;SDS011;315;48.738;9.126;2023-04-24T12:27:29;2.83;;;1.90;;
665;SDS011;315;48.738;9.126;2023-04-24T12:29:57;3.80;;;2.40;;
665;SDS011;315;48.738;9.126;2023-04-24T12:32:24;2.27;;;2.17;;
665;SDS011;315;48.738;9.126;2023-04-24T12:34:50;2.00;;;1.90;;
665;SDS011;315;48.738;9.126;2023-04-24T12:37:17;2.43;;;2.23;;
665;SDS011;315;48.738;9.126;2023-04-24T12:40:02;2.90;;;1.87;;
665;SDS011;315;48.738;9.126;2023-04-24T12:42:32;1.50;;;1.40;;
665;SDS011;315;48.738;9.126;2023-04-24T12:45:00;3.80;;;2.10;;
665;SDS011;315;48.738;9.126;2023-04-24T12:47:28;2.17;;;1.97;;
665;SDS011;315;48.738;9.126;2023-04-24T12:49:54;3.30;;;1.93;;
665;SDS011;315;48.738;9.126;2023-04-24T12:52:20;2.77;;;2.33;;
665;SDS011;315;48.738;9.126;2023-04-24T12:54:48;1.60;;;1.50;;
665;SDS011;315;48.738;9.126;2023-04-24T12:57:14;1.50;;;1.40;;
665;SDS011;315;48.738;9.126;2023-04-24T12:59:40;4.03;;;2.27;;
665;SDS011;315;48.738;9.126;2023-04-24T13:02:06;1.77;;;1.67;;
665;SDS011;315;48.738;9.126;2023-04-24T13:04:32;1.47;;;1.37;;
665;SDS011;315;48.738;9.126;2023-04-24T13:06:57;2.93;;;1.90;;
665;SDS011;315;48.738;9.126;2023-04-24T13:09:23;1.73;;;1.63;;
665;SDS011;315;48.738;9.126;2023-04-24T13:11:48;2.20;;;2.00;;
665;SDS011;315;48.738;9.126;2023-04-24T13:14:15;3.00;;;2.27;;
665;SDS011;315;48.738;9.126;2023-04-24T13:16:40;3.30;;;2.43;;
665;SDS011;315;48.738;9.126;2023-04-24T13:19:06;3.83;;;3.47;;
665;SDS011;315;48.738;9.126;2023-04-24T13:21:31;2.70;;;2.50;;
665;SDS011;315;48.738;9.126;2023-04-24T13:23:57;3.70;;;3.30;;
665;SDS011;315;48.738;9.126;2023-04-24T13:26:22;2.30;;;2.10;;
665;SDS011;315;48.738;9.126;2023-04-24T13:28:48;2.60;;;2.40;;
665;SDS011;315;48.738;9.126;2023-04-24T13:31:13;3.23;;;2.13;;
665;SDS011;315;48.738;9.126;2023-04-24T13:33:39;2.77;;;2.57;;
665;SDS011;315;48.738;9.126;2023-04-24T13:36:05;2.40;;;2.20;;
665;SDS011;315;48.738;9.126;2023-04-24T13:38:31;2.70;;;2.30;;
665;SDS011;315;48.738;9.126;2023-04-24T13:40:56;3.10;;;2.80;;
665;SDS011;315;48.738;9.126;2023-04-24T13:43:22;2.07;;;1.87;;
665;SDS011;315;48.738;9.126;2023-04-24T13:45:47;3.77;;;3.43;;
665;SDS011;315;48.738;9.126;2023-04-24T13:48:13;2.30;;;2.10;;
665;SDS011;315;48.738;9.126;2023-04-24T13:50:40;2.83;;;2.63;;
665;SDS011;315;48.738;9.126;2023-04-24T13:53:06;2.57;;;2.23;;
665;SDS011;315;48.738;9.126;2023-04-24T13:55:32;2.80;;;2.60;;
665;SDS011;315;48.738;9.126;2023-04-24T13:57:58;3.57;;;2.07;;
665;SDS011;315;48.738;9.126;2023-04-24T14:00:23;3.13;;;2.93;;
665;SDS011;315;48.738;9.126;2023-04-24T14:02:49;3.20;;;2.80;;
665;SDS011;315;48.738;9.126;2023-04-24T14:05:15;2.60;;;2.40;;
665;SDS011;315;48.738;9.126;2023-04-24T14:07:41;4.23;;;2.87;;
665;SDS011;315;48.738;9.126;2023-04-24T14:10:06;2.30;;;2.20;;
665;SDS011;315;48.738;9.126;2023-04-24T14:12:32;3.67;;;3.30;;
665;SDS011;315;48.738;9.126;2023-04-24T14:14:58;4.33;;;2.80;;
665;SDS011;315;48.738;9.126;2023-04-24T14:17:24;2.93;;;2.50;;
665;SDS011;315;48.738;9.126;2023-04-24T14:19:50;6.23;;;2.70;;
665;SDS011;315;48.738;9.126;2023-04-24T14:22:16;2.63;;;2.43;;
665;SDS011;315;48.738;9.126;2023-04-24T14:24:42;3.10;;;2.87;;
665;SDS011;315;48.738;9.126;2023-04-24T14:27:08;3.47;;;2.43;;
665;SDS011;315;48.738;9.126;2023-04-24T14:29:34;2.97;;;2.77;;
665;SDS011;315;48.738;9.126;2023-04-24T14:32:00;3.03;;;2.83;;
665;SDS011;315;48.738;9.126;2023-04-24T14:34:25;4.43;;;2.50;;
665;SDS011;315;48.738;9.126;2023-04-24T14:36:51;6.13;;;3.60;;
665;SDS011;315;48.738;9.126;2023-04-24T14:39:17;3.70;;;3.27;;
665;SDS011;315;48.738;9.126;2023-04-24T14:41:43;3.07;;;2.63;;
665;SDS011;315;48.738;9.126;2023-04-24T14:44:08;4.10;;;3.03;;
665;SDS011;315;48.738;9.126;2023-04-24T14:46:34;3.33;;;3.03;;
665;SDS011;315;48.738;9.126;2023-04-24T14:48:59;2.73;;;2.53;;
665;SDS011;315;48.738;9.126;2023-04-24T14:51:25;4.30;;;3.90;;
665;SDS011;315;48.738;9.126;2023-04-24T14:53:51;2.77;;;2.57;;
665;SDS011;315;48.738;9.126;2023-04-24T14:56:17;2.63;;;2.43;;
665;SDS011;315;48.738;9.126;2023-04-24T14:58:43;3.50;;;3.20;;
665;SDS011;315;48.738;9.126;2023-04-24T15:01:08;2.87;;;2.67;;
665;SDS011;315;48.738;9.126;2023-04-24T15:03:34;4.60;;;3.10;;
665;SDS011;315;48.738;9.126;2023-04-24T15:06:00;4.37;;;2.80;;
665;SDS011;315;48.738;9.126;2023-04-24T15:08:26;4.00;;;3.20;;
665;SDS011;315;48.738;9.126;2023-04-24T15:10:51;2.70;;;2.20;;
665;SDS011;315;48.738;9.126;2023-04-24T15:13:17;3.17;;;2.80;;
665;SDS011;315;48.738;9.126;2023-04-24T15:15:43;2.63;;;2.37;;
665;SDS011;315;48.738;9.126;2023-04-24T15:18:11;2.57;;;2.37;;
665;SDS011;315;48.738;9.126;2023-04-24T15:20:36;3.70;;;2.50;;
665;SDS011;315;48.738;9.126;2023-04-24T15:23:04;2.97;;;2.77;;
665;SDS011;315;48.738;9.126;2023-04-24T15:25:33;2.47;;;2.17;;
665;SDS011;315;48.738;9.126;2023-04-24T15:27:59;2.87;;;2.63;;
665;SDS011;315;48.738;9.126;2023-04-24T15:30:25;3.63;;;2.90;;
665;SDS011;315;48.738;9.126;2023-04-24T15:32:51;3.13;;;2.20;;
665;SDS011;315;48.738;9.126;2023-04-24T15:35:17;2.67;;;2.47;;
665;SDS011;315;48.738;9.126;2023-04-24T15:37:42;2.80;;;2.53;;
665;SDS011;315;48.738;9.126;2023-04-24T15:40:08;3.30;;;3.10;;
665;SDS011;315;48.738;9.126;2023-04-24T15:42:36;3.30;;;3.00;;
665;SDS011;315;48.738;9.126;2023-04-24T15:45:02;4.73;;;3.30;;
665;SDS011;315;48.738;9.126;2023-04-24T15:47:28;6.43;;;4.00;;
665;SDS011;315;48.738;9.126;2023-04-24T15:49:54;3.10;;;2.50;;
665;SDS011;315;48.738;9.126;2023-04-24T15:52:20;3.23;;;3.03;;
665;SDS011;315;48.738;9.126;2023-04-24T15:54:46;3.00;;;2.80;;
665;SDS011;315;48.738;9.126;2023-04-24T15:57:11;4.43;;;3.37;;